sensor_id;sensor_type;location;lat;lon;timestamp;temperature;humidity
15341;DHT22;7770;52.158;5.372;2023-01-05T00:00:06;10.30;99.90
15341;DHT22;7770;52.158;5.372;2023-01-05T00:02:52;10.20;99.90
15341;DHT22;7770;52.158;5.372;2023-01-05T00:05:38;10.20;99.90
15341;DHT22;7770;52.158;5.372;2023-01-05T00:08:24;10.10;99.90
15341;DHT22;7770;52.158;5.372;2023-01-05T00:11:18;10.20;99.90
15341;DHT22;7770;52.158;5.372;2023-01-05T00:14:27;10.20;99.90
15341;DHT22;7770;52.158;5.372;2023-01-05T00:17:33;10.30;99.90
15341;DHT22;7770;52.158;5.372;2023-01-05T00:20:37;10.30;99.90
15341;DHT22;7770;52.158;5.372;2023-01-05T00:23:43;10.30;99.90
15341;DHT22;7770;52.158;5.372;2023-01-05T00:26:29;10.30;99.90
15341;DHT22;7770;52.158;5.372;2023-01-05T00:29:15;10.30;99.90
15341;DHT22;7770;52.158;5.372;2023-01-05T00:32:01;10.20;99.90
15341;DHT22;7770;52.158;5.372;2023-01-05T00:34:48;10.10;99.90
15341;DHT22;7770;52.158;5.372;2023-01-05T00:37:36;10.10;99.90
15341;DHT22;7770;52.158;5.372;2023-01-05T00:40:23;10.20;99.90
15341;DHT22;7770;52.158;5.372;2023-01-05T00:43:09;10.20;99.90
15341;DHT22;7770;52.158;5.372;2023-01-05T00:45:55;10.30;99.90
15341;DHT22;7770;52.158;5.372;2023-01-05T00:48:41;10.30;99.90
15341;DHT22;7770;52.158;5.372;2023-01-05T00:51:27;10.30;99.90
15341;DHT22;7770;52.158;5.372;2023-01-05T00:54:13;10.30;99.90
15341;DHT22;7770;52.158;5.372;2023-01-05T00:56:59;10.40;99.90
15341;DHT22;7770;52.158;5.372;2023-01-05T00:59:46;10.40;99.90
15341;DHT22;7770;52.158;5.372;2023-01-05T01:02:32;10.40;99.90
15341;DHT22;7770;52.158;5.372;2023-01-05T01:05:18;10.40;99.90
15341;DHT22;7770;52.158;5.372;2023-01-05T01:08:04;10.50;99.90
15341;DHT22;7770;52.158;5.372;2023-01-05T01:10:50;10.60;99.90
15341;DHT22;7770;52.158;5.372;2023-01-05T01:13:36;10.50;99.90
15341;DHT22;7770;52.158;5.372;2023-01-05T01:16:23;10.60;99.90
15341;DHT22;7770;52.158;5.372;2023-01-05T01:19:15;10.60;99.90
15341;DHT22;7770;52.158;5.372;2023-01-05T01:22:02;10.60;99.90
15341;DHT22;7770;52.158;5.372;2023-01-05T01:24:48;10.60;99.90
15341;DHT22;7770;52.158;5.372;2023-01-05T01:27:34;10.60;99.90
15341;DHT22;7770;52.158;5.372;2023-01-05T01:30:20;10.60;99.90
15341;DHT22;7770;52.158;5.372;2023-01-05T01:33:06;10.60;99.90
15341;DHT22;7770;52.158;5.372;2023-01-05T01:35:52;10.60;99.90
15341;DHT22;7770;52.158;5.372;2023-01-05T01:38:39;10.60;99.90
15341;DHT22;7770;52.158;5.372;2023-01-05T01:41:25;10.70;99.90
15341;DHT22;7770;52.158;5.372;2023-01-05T01:47:52;10.70;99.90
15341;DHT22;7770;52.158;5.372;2023-01-05T01:50:44;10.70;99.90
15341;DHT22;7770;52.158;5.372;2023-01-05T01:53:41;10.60;99.90
15341;DHT22;7770;52.158;5.372;2023-01-05T01:56:33;10.70;99.90
15341;DHT22;7770;52.158;5.372;2023-01-05T01:59:23;10.70;99.90
15341;DHT22;7770;52.158;5.372;2023-01-05T02:02:10;10.60;99.90
15341;DHT22;7770;52.158;5.372;2023-01-05T02:05:01;10.60;99.90
15341;DHT22;7770;52.158;5.372;2023-01-05T02:07:49;10.50;99.90
15341;DHT22;7770;52.158;5.372;2023-01-05T02:17:23;10.50;99.90
15341;DHT22;7770;52.158;5.372;2023-01-05T02:20:38;10.50;99.90
15341;DHT22;7770;52.158;5.372;2023-01-05T02:34:02;10.50;99.90
15341;DHT22;7770;52.158;5.372;2023-01-05T02:37:31;10.40;99.90
15341;DHT22;7770;52.158;5.372;2023-01-05T02:40:38;10.40;99.90
15341;DHT22;7770;52.158;5.372;2023-01-05T02:43:27;10.50;99.90
15341;DHT22;7770;52.158;5.372;2023-01-05T02:46:14;10.50;99.90
15341;DHT22;7770;52.158;5.372;2023-01-05T02:49:01;10.60;99.90
15341;DHT22;7770;52.158;5.372;2023-01-05T02:51:50;10.60;99.90
15341;DHT22;7770;52.158;5.372;2023-01-05T02:54:51;10.60;99.90
15341;DHT22;7770;52.158;5.372;2023-01-05T02:57:46;10.60;99.90
15341;DHT22;7770;52.158;5.372;2023-01-05T03:01:07;10.60;99.90
15341;DHT22;7770;52.158;5.372;2023-01-05T03:04:02;10.60;99.90
15341;DHT22;7770;52.158;5.372;2023-01-05T03:07:03;10.50;99.90
15341;DHT22;7770;52.158;5.372;2023-01-05T03:09:52;10.50;99.90
15341;DHT22;7770;52.158;5.372;2023-01-05T03:12:38;10.50;99.90
15341;DHT22;7770;52.158;5.372;2023-01-05T03:15:44;10.50;99.90
15341;DHT22;7770;52.158;5.372;2023-01-05T03:18:32;10.50;99.90
15341;DHT22;7770;52.158;5.372;2023-01-05T03:21:18;10.50;99.90
15341;DHT22;7770;52.158;5.372;2023-01-05T03:24:05;10.50;99.90
15341;DHT22;7770;52.158;5.372;2023-01-05T03:27:10;10.50;99.90
15341;DHT22;7770;52.158;5.372;2023-01-05T03:30:16;10.50;99.90
15341;DHT22;7770;52.158;5.372;2023-01-05T03:37:07;10.50;99.90
15341;DHT22;7770;52.158;5.372;2023-01-05T03:39:55;10.50;99.90
15341;DHT22;7770;52.158;5.372;2023-01-05T03:42:42;10.50;99.90
15341;DHT22;7770;52.158;5.372;2023-01-05T03:45:39;10.50;99.90
15341;DHT22;7770;52.158;5.372;2023-01-05T03:48:27;10.50;99.90
15341;DHT22;7770;52.158;5.372;2023-01-05T03:51:15;10.50;99.90
15341;DHT22;7770;52.158;5.372;2023-01-05T03:54:01;10.40;99.90
15341;DHT22;7770;52.158;5.372;2023-01-05T03:56:47;10.50;99.90
15341;DHT22;7770;52.158;5.372;2023-01-05T03:59:33;10.50;99.90
15341;DHT22;7770;52.158;5.372;2023-01-05T04:02:19;10.50;99.90
15341;DHT22;7770;52.158;5.372;2023-01-05T04:05:05;10.50;99.90
15341;DHT22;7770;52.158;5.372;2023-01-05T04:07:52;10.50;99.90
15341;DHT22;7770;52.158;5.372;2023-01-05T04:10:38;10.40;99.90
15341;DHT22;7770;52.158;5.372;2023-01-05T04:13:24;10.40;99.90
15341;DHT22;7770;52.158;5.372;2023-01-05T04:16:10;10.40;99.90
15341;DHT22;7770;52.158;5.372;2023-01-05T04:18:56;10.50;99.90
15341;DHT22;7770;52.158;5.372;2023-01-05T04:21:42;10.40;99.90
15341;DHT22;7770;52.158;5.372;2023-01-05T04:24:28;10.40;99.90
15341;DHT22;7770;52.158;5.372;2023-01-05T04:27:14;10.50;99.90
15341;DHT22;7770;52.158;5.372;2023-01-05T04:30:00;10.50;99.90
15341;DHT22;7770;52.158;5.372;2023-01-05T04:32:46;10.50;99.90
15341;DHT22;7770;52.158;5.372;2023-01-05T04:35:32;10.50;99.90
15341;DHT22;7770;52.158;5.372;2023-01-05T04:38:18;10.40;99.90
15341;DHT22;7770;52.158;5.372;2023-01-05T04:41:04;10.40;99.90
15341;DHT22;7770;52.158;5.372;2023-01-05T04:43:50;10.40;99.90
15341;DHT22;7770;52.158;5.372;2023-01-05T04:46:36;10.40;99.90
15341;DHT22;7770;52.158;5.372;2023-01-05T04:49:22;10.40;99.90
15341;DHT22;7770;52.158;5.372;2023-01-05T04:52:08;10.40;99.90
15341;DHT22;7770;52.158;5.372;2023-01-05T04:54:54;10.40;99.90
15341;DHT22;7770;52.158;5.372;2023-01-05T04:57:40;10.40;99.90
15341;DHT22;7770;52.158;5.372;2023-01-05T05:00:27;10.40;99.90
15341;DHT22;7770;52.158;5.372;2023-01-05T05:03:15;10.40;99.90
15341;DHT22;7770;52.158;5.372;2023-01-05T05:06:01;10.40;99.90
15341;DHT22;7770;52.158;5.372;2023-01-05T05:08:47;10.40;99.90
15341;DHT22;7770;52.158;5.372;2023-01-05T05:11:33;10.30;99.90
15341;DHT22;7770;52.158;5.372;2023-01-05T05:14:19;10.30;99.90
15341;DHT22;7770;52.158;5.372;2023-01-05T05:17:05;10.30;99.90
15341;DHT22;7770;52.158;5.372;2023-01-05T05:19:51;10.30;99.90
15341;DHT22;7770;52.158;5.372;2023-01-05T05:22:37;10.30;99.90
15341;DHT22;7770;52.158;5.372;2023-01-05T05:25:23;10.30;99.90
15341;DHT22;7770;52.158;5.372;2023-01-05T05:28:09;10.30;99.90
15341;DHT22;7770;52.158;5.372;2023-01-05T05:30:56;10.30;99.90
15341;DHT22;7770;52.158;5.372;2023-01-05T05:33:42;10.30;99.90
15341;DHT22;7770;52.158;5.372;2023-01-05T05:36:28;10.30;99.90
15341;DHT22;7770;52.158;5.372;2023-01-05T05:39:14;10.30;99.90
15341;DHT22;7770;52.158;5.372;2023-01-05T05:42:01;10.30;99.90
15341;DHT22;7770;52.158;5.372;2023-01-05T05:44:47;10.30;99.90
15341;DHT22;7770;52.158;5.372;2023-01-05T05:47:33;10.30;99.90
15341;DHT22;7770;52.158;5.372;2023-01-05T05:50:19;10.30;99.90
15341;DHT22;7770;52.158;5.372;2023-01-05T05:53:05;10.30;99.90
15341;DHT22;7770;52.158;5.372;2023-01-05T05:55:51;10.20;99.90
15341;DHT22;7770;52.158;5.372;2023-01-05T05:58:37;10.20;99.90
15341;DHT22;7770;52.158;5.372;2023-01-05T06:01:23;10.20;99.90
15341;DHT22;7770;52.158;5.372;2023-01-05T06:04:09;10.20;99.90
15341;DHT22;7770;52.158;5.372;2023-01-05T06:06:56;10.20;99.90
15341;DHT22;7770;52.158;5.372;2023-01-05T06:09:42;10.20;99.90
15341;DHT22;7770;52.158;5.372;2023-01-05T06:12:28;10.20;99.90
15341;DHT22;7770;52.158;5.372;2023-01-05T06:15:14;10.20;99.90
15341;DHT22;7770;52.158;5.372;2023-01-05T06:18:00;10.20;99.90
15341;DHT22;7770;52.158;5.372;2023-01-05T06:20:46;10.30;99.90
15341;DHT22;7770;52.158;5.372;2023-01-05T06:23:32;10.30;99.90
15341;DHT22;7770;52.158;5.372;2023-01-05T06:26:18;10.30;99.90
15341;DHT22;7770;52.158;5.372;2023-01-05T06:29:04;10.30;99.90
15341;DHT22;7770;52.158;5.372;2023-01-05T06:31:50;10.30;99.90
15341;DHT22;7770;52.158;5.372;2023-01-05T06:34:36;10.30;99.90
15341;DHT22;7770;52.158;5.372;2023-01-05T06:37:22;10.40;99.90
15341;DHT22;7770;52.158;5.372;2023-01-05T06:40:09;10.40;99.90
15341;DHT22;7770;52.158;5.372;2023-01-05T06:42:56;10.40;99.90
15341;DHT22;7770;52.158;5.372;2023-01-05T06:45:43;10.40;99.90
15341;DHT22;7770;52.158;5.372;2023-01-05T06:48:29;10.40;99.90
15341;DHT22;7770;52.158;5.372;2023-01-05T06:51:15;10.40;99.90
15341;DHT22;7770;52.158;5.372;2023-01-05T06:54:01;10.40;99.90
15341;DHT22;7770;52.158;5.372;2023-01-05T06:56:47;10.40;99.90
15341;DHT22;7770;52.158;5.372;2023-01-05T06:59:33;10.40;99.90
15341;DHT22;7770;52.158;5.372;2023-01-05T07:02:19;10.40;99.90
15341;DHT22;7770;52.158;5.372;2023-01-05T07:05:06;10.40;99.90
15341;DHT22;7770;52.158;5.372;2023-01-05T07:07:52;10.40;99.90
15341;DHT22;7770;52.158;5.372;2023-01-05T07:10:39;10.50;99.90
15341;DHT22;7770;52.158;5.372;2023-01-05T07:13:25;10.50;99.90
15341;DHT22;7770;52.158;5.372;2023-01-05T07:16:11;10.40;99.90
15341;DHT22;7770;52.158;5.372;2023-01-05T07:18:57;10.40;99.90
15341;DHT22;7770;52.158;5.372;2023-01-05T07:21:42;10.40;99.90
15341;DHT22;7770;52.158;5.372;2023-01-05T07:24:29;10.30;99.90
15341;DHT22;7770;52.158;5.372;2023-01-05T07:27:15;10.30;99.90
15341;DHT22;7770;52.158;5.372;2023-01-05T07:30:01;10.30;99.90
15341;DHT22;7770;52.158;5.372;2023-01-05T07:32:47;10.30;99.90
15341;DHT22;7770;52.158;5.372;2023-01-05T07:35:33;10.30;99.90
15341;DHT22;7770;52.158;5.372;2023-01-05T07:38:19;10.30;99.90
15341;DHT22;7770;52.158;5.372;2023-01-05T07:41:05;10.20;99.90
15341;DHT22;7770;52.158;5.372;2023-01-05T07:43:52;10.20;99.90
15341;DHT22;7770;52.158;5.372;2023-01-05T07:46:38;10.20;99.90
15341;DHT22;7770;52.158;5.372;2023-01-05T07:49:24;10.20;99.90
15341;DHT22;7770;52.158;5.372;2023-01-05T07:52:10;10.20;99.90
15341;DHT22;7770;52.158;5.372;2023-01-05T07:54:56;10.20;99.90
15341;DHT22;7770;52.158;5.372;2023-01-05T07:57:43;10.20;99.90
15341;DHT22;7770;52.158;5.372;2023-01-05T08:00:30;10.10;99.90
15341;DHT22;7770;52.158;5.372;2023-01-05T08:03:16;10.10;99.90
15341;DHT22;7770;52.158;5.372;2023-01-05T08:06:13;10.10;99.90
15341;DHT22;7770;52.158;5.372;2023-01-05T08:09:00;10.10;99.90
15341;DHT22;7770;52.158;5.372;2023-01-05T08:12:06;10.10;99.90
15341;DHT22;7770;52.158;5.372;2023-01-05T08:14:52;10.20;99.90
15341;DHT22;7770;52.158;5.372;2023-01-05T08:17:38;10.20;99.90
15341;DHT22;7770;52.158;5.372;2023-01-05T08:20:25;10.20;99.90
15341;DHT22;7770;52.158;5.372;2023-01-05T08:23:11;10.10;99.90
15341;DHT22;7770;52.158;5.372;2023-01-05T08:26:06;10.20;99.90
15341;DHT22;7770;52.158;5.372;2023-01-05T08:28:59;10.20;99.90
15341;DHT22;7770;52.158;5.372;2023-01-05T08:31:46;10.20;99.90
15341;DHT22;7770;52.158;5.372;2023-01-05T08:34:32;10.20;99.90
15341;DHT22;7770;52.158;5.372;2023-01-05T08:37:18;10.30;99.90
15341;DHT22;7770;52.158;5.372;2023-01-05T08:40:04;10.30;99.90
15341;DHT22;7770;52.158;5.372;2023-01-05T08:42:51;10.30;99.90
15341;DHT22;7770;52.158;5.372;2023-01-05T08:45:37;10.30;99.90
15341;DHT22;7770;52.158;5.372;2023-01-05T08:48:23;10.40;99.90
15341;DHT22;7770;52.158;5.372;2023-01-05T08:51:09;10.40;99.90
15341;DHT22;7770;52.158;5.372;2023-01-05T08:53:55;10.50;99.90
15341;DHT22;7770;52.158;5.372;2023-01-05T08:56:41;10.50;99.90
15341;DHT22;7770;52.158;5.372;2023-01-05T08:59:28;10.50;99.90
15341;DHT22;7770;52.158;5.372;2023-01-05T09:02:14;10.50;99.90
15341;DHT22;7770;52.158;5.372;2023-01-05T09:05:00;10.50;99.90
15341;DHT22;7770;52.158;5.372;2023-01-05T09:07:46;10.50;99.90
15341;DHT22;7770;52.158;5.372;2023-01-05T09:10:32;10.50;99.90
15341;DHT22;7770;52.158;5.372;2023-01-05T09:13:18;10.50;99.90
15341;DHT22;7770;52.158;5.372;2023-01-05T09:16:16;10.60;99.90
15341;DHT22;7770;52.158;5.372;2023-01-05T09:19:04;10.60;99.90
15341;DHT22;7770;52.158;5.372;2023-01-05T09:21:50;10.60;99.90
15341;DHT22;7770;52.158;5.372;2023-01-05T09:24:37;10.60;99.90
15341;DHT22;7770;52.158;5.372;2023-01-05T09:27:23;10.70;99.90
15341;DHT22;7770;52.158;5.372;2023-01-05T09:30:10;10.70;99.90
15341;DHT22;7770;52.158;5.372;2023-01-05T09:32:56;10.80;99.90
15341;DHT22;7770;52.158;5.372;2023-01-05T09:35:42;10.80;99.90
15341;DHT22;7770;52.158;5.372;2023-01-05T09:38:28;10.80;99.90
15341;DHT22;7770;52.158;5.372;2023-01-05T09:50:24;10.90;99.90
15341;DHT22;7770;52.158;5.372;2023-01-05T09:53:13;10.90;99.90
15341;DHT22;7770;52.158;5.372;2023-01-05T09:56:00;11.00;99.90
15341;DHT22;7770;52.158;5.372;2023-01-05T09:58:46;11.00;99.90
15341;DHT22;7770;52.158;5.372;2023-01-05T10:01:35;11.00;99.90
15341;DHT22;7770;52.158;5.372;2023-01-05T10:04:23;11.00;99.90
15341;DHT22;7770;52.158;5.372;2023-01-05T10:07:29;11.00;99.90
15341;DHT22;7770;52.158;5.372;2023-01-05T10:10:42;11.10;99.90
15341;DHT22;7770;52.158;5.372;2023-01-05T10:13:31;11.10;99.90
15341;DHT22;7770;52.158;5.372;2023-01-05T10:16:21;11.20;99.90
15341;DHT22;7770;52.158;5.372;2023-01-05T10:19:13;11.30;99.90
15341;DHT22;7770;52.158;5.372;2023-01-05T10:22:07;11.40;99.90
15341;DHT22;7770;52.158;5.372;2023-01-05T10:29:02;11.60;99.90
15341;DHT22;7770;52.158;5.372;2023-01-05T10:32:08;11.70;99.90
15341;DHT22;7770;52.158;5.372;2023-01-05T10:38:53;11.70;99.90
15341;DHT22;7770;52.158;5.372;2023-01-05T10:45:34;11.50;99.90
15341;DHT22;7770;52.158;5.372;2023-01-05T10:48:30;11.40;99.90
15341;DHT22;7770;52.158;5.372;2023-01-05T10:51:19;11.40;99.90
15341;DHT22;7770;52.158;5.372;2023-01-05T10:54:20;11.40;99.90
15341;DHT22;7770;52.158;5.372;2023-01-05T10:57:31;11.40;99.90
15341;DHT22;7770;52.158;5.372;2023-01-05T11:00:21;11.50;99.90
15341;DHT22;7770;52.158;5.372;2023-01-05T11:03:42;11.50;99.90
15341;DHT22;7770;52.158;5.372;2023-01-05T11:06:32;11.60;99.90
15341;DHT22;7770;52.158;5.372;2023-01-05T11:09:22;11.60;99.90
15341;DHT22;7770;52.158;5.372;2023-01-05T11:12:20;11.60;99.90
15341;DHT22;7770;52.158;5.372;2023-01-05T11:15:12;11.60;99.90
15341;DHT22;7770;52.158;5.372;2023-01-05T11:18:00;11.60;99.90
15341;DHT22;7770;52.158;5.372;2023-01-05T11:33:00;11.90;99.90
15341;DHT22;7770;52.158;5.372;2023-01-05T11:35:46;12.10;99.90
15341;DHT22;7770;52.158;5.372;2023-01-05T11:38:33;12.30;99.90
15341;DHT22;7770;52.158;5.372;2023-01-05T11:41:21;12.30;99.90
15341;DHT22;7770;52.158;5.372;2023-01-05T11:44:21;12.30;99.90
15341;DHT22;7770;52.158;5.372;2023-01-05T11:47:08;12.40;99.90
15341;DHT22;7770;52.158;5.372;2023-01-05T11:53:04;12.80;99.90
15341;DHT22;7770;52.158;5.372;2023-01-05T11:58:54;13.60;99.90
15341;DHT22;7770;52.158;5.372;2023-01-05T12:05:30;15.20;99.90
15341;DHT22;7770;52.158;5.372;2023-01-05T12:08:30;15.10;99.90
15341;DHT22;7770;52.158;5.372;2023-01-05T12:11:22;14.60;99.90
15341;DHT22;7770;52.158;5.372;2023-01-05T12:17:46;13.70;99.90
15341;DHT22;7770;52.158;5.372;2023-01-05T12:20:47;13.30;99.90
15341;DHT22;7770;52.158;5.372;2023-01-05T12:41:22;13.10;99.90
15341;DHT22;7770;52.158;5.372;2023-01-05T12:51:29;13.00;99.90
15341;DHT22;7770;52.158;5.372;2023-01-05T12:54:30;12.90;99.90
15341;DHT22;7770;52.158;5.372;2023-01-05T12:57:58;12.60;99.90
15341;DHT22;7770;52.158;5.372;2023-01-05T13:00:48;12.30;99.90
15341;DHT22;7770;52.158;5.372;2023-01-05T13:03:43;12.10;99.90
15341;DHT22;7770;52.158;5.372;2023-01-05T13:06:59;12.00;99.90
15341;DHT22;7770;52.158;5.372;2023-01-05T13:09:59;12.00;99.90
15341;DHT22;7770;52.158;5.372;2023-01-05T13:12:52;12.20;99.90
15341;DHT22;7770;52.158;5.372;2023-01-05T13:15:48;12.10;99.90
15341;DHT22;7770;52.158;5.372;2023-01-05T13:18:43;12.00;99.90
15341;DHT22;7770;52.158;5.372;2023-01-05T13:21:39;11.90;99.90
15341;DHT22;7770;52.158;5.372;2023-01-05T13:24:34;11.80;99.90
15341;DHT22;7770;52.158;5.372;2023-01-05T13:27:22;11.80;99.90
15341;DHT22;7770;52.158;5.372;2023-01-05T13:30:30;11.80;99.90
15341;DHT22;7770;52.158;5.372;2023-01-05T13:44:28;11.80;99.90
15341;DHT22;7770;52.158;5.372;2023-01-05T13:47:26;11.80;99.90
15341;DHT22;7770;52.158;5.372;2023-01-05T13:50:33;11.90;99.90
15341;DHT22;7770;52.158;5.372;2023-01-05T13:53:27;11.90;99.90
15341;DHT22;7770;52.158;5.372;2023-01-05T13:56:21;12.00;99.90
15341;DHT22;7770;52.158;5.372;2023-01-05T13:59:34;12.00;99.90
15341;DHT22;7770;52.158;5.372;2023-01-05T14:02:36;12.00;99.90
15341;DHT22;7770;52.158;5.372;2023-01-05T14:05:33;12.00;99.90
15341;DHT22;7770;52.158;5.372;2023-01-05T14:08:35;11.90;99.90
15341;DHT22;7770;52.158;5.372;2023-01-05T14:11:24;11.90;99.90
15341;DHT22;7770;52.158;5.372;2023-01-05T14:14:25;11.80;99.90
15341;DHT22;7770;52.158;5.372;2023-01-05T14:20:38;11.70;99.90
15341;DHT22;7770;52.158;5.372;2023-01-05T14:26:14;11.70;99.90
15341;DHT22;7770;52.158;5.372;2023-01-05T14:29:00;11.60;99.90
15341;DHT22;7770;52.158;5.372;2023-01-05T14:31:46;11.60;99.90
15341;DHT22;7770;52.158;5.372;2023-01-05T14:34:33;11.60;99.90
15341;DHT22;7770;52.158;5.372;2023-01-05T14:37:31;11.50;99.90
15341;DHT22;7770;52.158;5.372;2023-01-05T14:46:11;11.30;99.90
15341;DHT22;7770;52.158;5.372;2023-01-05T14:49:06;11.30;99.90
15341;DHT22;7770;52.158;5.372;2023-01-05T14:51:56;11.20;99.90
15341;DHT22;7770;52.158;5.372;2023-01-05T14:57:36;11.10;99.90
15341;DHT22;7770;52.158;5.372;2023-01-05T15:03:35;11.10;99.90
15341;DHT22;7770;52.158;5.372;2023-01-05T15:22:13;10.80;99.90
15341;DHT22;7770;52.158;5.372;2023-01-05T15:31:54;10.60;99.90
15341;DHT22;7770;52.158;5.372;2023-01-05T15:34:46;10.60;99.90
15341;DHT22;7770;52.158;5.372;2023-01-05T15:37:38;10.60;99.90
15341;DHT22;7770;52.158;5.372;2023-01-05T15:40:27;10.60;99.90
15341;DHT22;7770;52.158;5.372;2023-01-05T15:43:16;10.50;99.90
15341;DHT22;7770;52.158;5.372;2023-01-05T15:46:02;10.50;99.90
15341;DHT22;7770;52.158;5.372;2023-01-05T15:48:52;10.50;99.90
15341;DHT22;7770;52.158;5.372;2023-01-05T15:51:39;10.50;99.90
15341;DHT22;7770;52.158;5.372;2023-01-05T15:54:28;10.50;99.90
15341;DHT22;7770;52.158;5.372;2023-01-05T15:57:19;10.50;99.90
15341;DHT22;7770;52.158;5.372;2023-01-05T16:00:17;10.50;99.90
15341;DHT22;7770;52.158;5.372;2023-01-05T16:03:19;10.50;99.90
15341;DHT22;7770;52.158;5.372;2023-01-05T16:06:23;10.50;99.90
15341;DHT22;7770;52.158;5.372;2023-01-05T16:09:22;10.40;99.90
15341;DHT22;7770;52.158;5.372;2023-01-05T16:12:20;10.40;99.90
15341;DHT22;7770;52.158;5.372;2023-01-05T16:15:14;10.40;99.90
15341;DHT22;7770;52.158;5.372;2023-01-05T16:18:05;10.30;99.90
15341;DHT22;7770;52.158;5.372;2023-01-05T16:20:54;10.30;99.90
15341;DHT22;7770;52.158;5.372;2023-01-05T16:23:51;10.20;99.90
15341;DHT22;7770;52.158;5.372;2023-01-05T16:26:40;10.20;99.90
15341;DHT22;7770;52.158;5.372;2023-01-05T16:29:30;10.10;99.90
15341;DHT22;7770;52.158;5.372;2023-01-05T16:32:32;10.10;99.90
15341;DHT22;7770;52.158;5.372;2023-01-05T16:35:47;10.00;99.90
15341;DHT22;7770;52.158;5.372;2023-01-05T16:38:40;10.00;99.90
15341;DHT22;7770;52.158;5.372;2023-01-05T16:41:26;10.00;99.90
15341;DHT22;7770;52.158;5.372;2023-01-05T16:44:12;10.00;99.90
15341;DHT22;7770;52.158;5.372;2023-01-05T16:47:07;9.90;99.90
15341;DHT22;7770;52.158;5.372;2023-01-05T16:49:54;9.90;99.90
15341;DHT22;7770;52.158;5.372;2023-01-05T16:52:40;9.90;99.90
15341;DHT22;7770;52.158;5.372;2023-01-05T16:55:31;9.90;99.90
15341;DHT22;7770;52.158;5.372;2023-01-05T16:58:33;9.90;99.90
15341;DHT22;7770;52.158;5.372;2023-01-05T17:01:25;9.90;99.90
15341;DHT22;7770;52.158;5.372;2023-01-05T17:04:22;9.90;99.90
15341;DHT22;7770;52.158;5.372;2023-01-05T17:07:08;9.90;99.90
15341;DHT22;7770;52.158;5.372;2023-01-05T17:09:54;9.90;99.90
15341;DHT22;7770;52.158;5.372;2023-01-05T17:12:40;9.90;99.90
15341;DHT22;7770;52.158;5.372;2023-01-05T17:15:30;9.90;99.90
15341;DHT22;7770;52.158;5.372;2023-01-05T17:18:27;9.90;99.90
15341;DHT22;7770;52.158;5.372;2023-01-05T17:21:16;9.90;99.90
15341;DHT22;7770;52.158;5.372;2023-01-05T17:24:05;9.90;99.90
15341;DHT22;7770;52.158;5.372;2023-01-05T17:26:53;9.90;99.90
15341;DHT22;7770;52.158;5.372;2023-01-05T17:29:39;9.90;99.90
15341;DHT22;7770;52.158;5.372;2023-01-05T17:32:25;9.90;99.90
15341;DHT22;7770;52.158;5.372;2023-01-05T17:35:11;9.90;99.90
15341;DHT22;7770;52.158;5.372;2023-01-05T17:37:57;9.90;99.90
15341;DHT22;7770;52.158;5.372;2023-01-05T17:40:43;10.00;99.90
15341;DHT22;7770;52.158;5.372;2023-01-05T17:43:29;10.00;99.90
15341;DHT22;7770;52.158;5.372;2023-01-05T17:46:18;10.00;99.90
15341;DHT22;7770;52.158;5.372;2023-01-05T17:49:10;10.00;99.90
15341;DHT22;7770;52.158;5.372;2023-01-05T17:51:58;10.00;99.90
15341;DHT22;7770;52.158;5.372;2023-01-05T17:54:44;10.00;99.90
15341;DHT22;7770;52.158;5.372;2023-01-05T17:57:30;10.00;99.90
15341;DHT22;7770;52.158;5.372;2023-01-05T18:00:18;10.10;99.90
15341;DHT22;7770;52.158;5.372;2023-01-05T18:03:05;10.10;99.90
15341;DHT22;7770;52.158;5.372;2023-01-05T18:05:52;10.10;99.90
15341;DHT22;7770;52.158;5.372;2023-01-05T18:08:38;10.10;99.90
15341;DHT22;7770;52.158;5.372;2023-01-05T18:11:24;10.10;99.90
15341;DHT22;7770;52.158;5.372;2023-01-05T18:14:10;10.10;99.90
15341;DHT22;7770;52.158;5.372;2023-01-05T18:16:56;10.10;99.90
15341;DHT22;7770;52.158;5.372;2023-01-05T18:19:42;10.20;99.90
15341;DHT22;7770;52.158;5.372;2023-01-05T18:22:28;10.20;99.90
15341;DHT22;7770;52.158;5.372;2023-01-05T18:25:15;10.20;99.90
15341;DHT22;7770;52.158;5.372;2023-01-05T18:28:02;10.30;99.90
15341;DHT22;7770;52.158;5.372;2023-01-05T18:30:48;10.30;99.90
15341;DHT22;7770;52.158;5.372;2023-01-05T18:33:34;10.30;99.90
15341;DHT22;7770;52.158;5.372;2023-01-05T18:36:20;10.30;99.90
15341;DHT22;7770;52.158;5.372;2023-01-05T18:39:06;10.30;99.90
15341;DHT22;7770;52.158;5.372;2023-01-05T18:41:53;10.40;99.90
15341;DHT22;7770;52.158;5.372;2023-01-05T18:44:39;10.40;99.90
15341;DHT22;7770;52.158;5.372;2023-01-05T18:47:25;10.40;99.90
15341;DHT22;7770;52.158;5.372;2023-01-05T18:50:11;10.40;99.90
15341;DHT22;7770;52.158;5.372;2023-01-05T18:52:57;10.40;99.90
15341;DHT22;7770;52.158;5.372;2023-01-05T18:55:44;10.50;99.90
15341;DHT22;7770;52.158;5.372;2023-01-05T18:58:30;10.50;99.90
15341;DHT22;7770;52.158;5.372;2023-01-05T19:01:18;10.50;99.90
15341;DHT22;7770;52.158;5.372;2023-01-05T19:04:04;10.50;99.90
15341;DHT22;7770;52.158;5.372;2023-01-05T19:06:51;10.50;99.90
15341;DHT22;7770;52.158;5.372;2023-01-05T19:09:37;10.50;99.90
15341;DHT22;7770;52.158;5.372;2023-01-05T19:12:23;10.60;99.90
15341;DHT22;7770;52.158;5.372;2023-01-05T19:15:09;10.60;99.90
15341;DHT22;7770;52.158;5.372;2023-01-05T19:17:56;10.60;99.90
15341;DHT22;7770;52.158;5.372;2023-01-05T19:20:42;10.60;99.90
15341;DHT22;7770;52.158;5.372;2023-01-05T19:23:28;10.70;99.90
15341;DHT22;7770;52.158;5.372;2023-01-05T19:26:14;10.70;99.90
15341;DHT22;7770;52.158;5.372;2023-01-05T19:29:01;10.70;99.90
15341;DHT22;7770;52.158;5.372;2023-01-05T19:31:48;10.70;99.90
15341;DHT22;7770;52.158;5.372;2023-01-05T19:34:34;10.70;99.90
15341;DHT22;7770;52.158;5.372;2023-01-05T19:37:20;10.80;99.90
15341;DHT22;7770;52.158;5.372;2023-01-05T19:40:07;10.80;99.90
15341;DHT22;7770;52.158;5.372;2023-01-05T19:42:54;10.80;99.90
15341;DHT22;7770;52.158;5.372;2023-01-05T19:45:40;10.80;99.90
15341;DHT22;7770;52.158;5.372;2023-01-05T19:48:27;10.80;99.90
15341;DHT22;7770;52.158;5.372;2023-01-05T19:51:22;10.80;99.90
15341;DHT22;7770;52.158;5.372;2023-01-05T19:54:09;10.80;99.90
15341;DHT22;7770;52.158;5.372;2023-01-05T19:56:56;10.80;99.90
15341;DHT22;7770;52.158;5.372;2023-01-05T19:59:42;10.80;99.90
15341;DHT22;7770;52.158;5.372;2023-01-05T20:02:28;10.80;99.90
15341;DHT22;7770;52.158;5.372;2023-01-05T20:05:14;10.80;99.90
15341;DHT22;7770;52.158;5.372;2023-01-05T20:08:01;10.80;99.90
15341;DHT22;7770;52.158;5.372;2023-01-05T20:10:49;10.80;99.90
15341;DHT22;7770;52.158;5.372;2023-01-05T20:13:35;10.80;99.90
15341;DHT22;7770;52.158;5.372;2023-01-05T20:16:21;10.80;99.90
15341;DHT22;7770;52.158;5.372;2023-01-05T20:19:07;10.80;99.90
15341;DHT22;7770;52.158;5.372;2023-01-05T20:21:55;10.70;99.90
15341;DHT22;7770;52.158;5.372;2023-01-05T20:24:42;10.70;99.90
15341;DHT22;7770;52.158;5.372;2023-01-05T20:27:28;10.70;99.90
15341;DHT22;7770;52.158;5.372;2023-01-05T20:30:14;10.60;99.90
15341;DHT22;7770;52.158;5.372;2023-01-05T20:33:00;10.60;99.90
15341;DHT22;7770;52.158;5.372;2023-01-05T20:35:46;10.60;99.90
15341;DHT22;7770;52.158;5.372;2023-01-05T20:38:32;10.60;99.90